TERMINUS DAM (TRM)

Elevation: 752' · KAWEAH R basin · Operator: US Army Corps of Engineers

Provisional data, subject to change.
Query executed Wednesday at 5:37:44   clock

Select a sensor type for a plot of data.
Note: Reservoir Flows are daily averages.

Earlier

Date RES ELE    STORAGE    RES CHG    TOC STO    ABV TOC    OUTFLOW    INFLOW    FNF    PPT INC    TEMP MN    TEMP MX    WINDLEN    EVP PAN   
 FEET   AF   AF   AF   AF   CFS   CFS   CFS   INCHES   DEG F   DEG F   MILES   INCHES  
08/03/2015 613.02 29412 -140 185300 -155888 109 47 47 0.00 19 36 81 0.30
08/04/2015 612.83 29256 -156 185300 -156044 108 36 36 0.00 19 32 88 0.24
08/05/2015 612.66 29116 -140 185300 -156184 105 40 40 0.00 18 29 67 0.19
08/06/2015 612.48 28969 -147 185300 -156331 104 36 36 0.00 23 34 82 0.24
08/07/2015 612.28 28806 -163 185300 -156494 103 29 29 0.00 21 36 78 0.30
08/08/2015 612.08 28644 -162 185300 -156656 103 29 29 0.00 20 36 81 0.30
08/09/2015 611.87 28474 -170 185300 -156826 103 26 26 0.00 22 37 96 0.32
08/10/2015 611.64 28289 -185 185300 -157011 107 22 22 0.00 19 37 87 0.31
08/11/2015 611.40 28097 -192 185300 -157203 111 22 22 0.00 18 36 82 0.30
08/12/2015 611.14 27890 -207 185300 -157410 117 21 21 0.00 18 36 89 0.31
08/13/2015 610.85 27660 -238 185300 -157640 126 18 18 0.00 19 36 78 0.29
08/14/2015 610.55 27423 -237 185300 -157877 125 13 13 0.00 19 36 75 0.28
08/15/2015 610.27 27203 -220 185300 -158097 121 18 18 0.00 23 38 94 0.31
08/16/2015 610.00 26993 -210 185300 -158307 117 20 20 0.00 25 40 97 0.33
08/17/2015 609.72 26776 -217 185300 -158524 113 13 13 0.00 26 42 111 0.36
08/18/2015 609.45 26567 -209 185300 -158733 111 13 13 0.00 22 39 92 0.29
08/19/2015 609.19 26368 -199 185300 -158932 111 18 19 0.00 20 38 90 0.28
08/20/2015 608.91 26154 -214 185300 -159146 111 11 11 0.00 19 36 91 0.29
08/21/2015 608.64 25949 -205 185300 -159351 111 15 15 0.00 19 35 86 0.27
08/22/2015 608.38 25753 -196 185300 -159547 112 19 19 0.00 19 36 79 0.26
08/23/2015 608.10 25542 -211 185300 -159758 112 14 14 0.00 21 37 94 0.30
08/24/2015 607.80 25318 -224 185300 -159982 112 6 6 0.00 20 38 89 0.28
08/25/2015 607.54 25125 -193 185300 -160175 111 21 21 0.00 23 39 87 0.28
08/26/2015 607.25 24911 -- 185300 -160389 111 11 11 0.00 25 39 102 0.32
08/27/2015 606.97 24706 -205 185300 -160594 112 16 16 0.00 23 38 94 0.30
08/28/2015 606.68 24494 -212 185300 -160806 114 13 13 0.00 24 40 102 0.32
08/29/2015 606.39 24284 -210 185300 -161016 114 14 13 0.00 22 37 108 0.31
08/30/2015 606.10 24075 -209 185300 -161225 115 14 4 0.00 19 33 89 0.26
08/31/2015 605.80 23860 -215 185300 -161440 115 11 11 0.00 17 33 72 0.23
09/01/2015 605.50 23647 -213 182775 -159128 115 15 -- 0.00 21 36 96 0.29
09/02/2015 -- -- -- -- -- -- -- -- -- -- -- -- --

Later | Latest

Warning! This data is preliminary and subject to revision.

Show TRM Map | Plot TRM Data | 1 Month TRM Data | Real-Time TRM Data | TRM Info